LTCR Airport Information

Runway Information
Runway 03 Length 8204 ft width 118 ft
Elevation 1650 ft Threshold 0 ft Heading 37
Runway 21 Length 8204 ft Width 118 ft
Elevation 1728 ft Threshold 0 ft Heading 217
Airport Frequencies
Type TWR Name TWR Frequency 118.65 MHZ
Airport Navaids
Type VOR-DME Name Mardin Frequency 116900 KHZ
Type NDB Name Mardin Frequency 403 KHZ
Airport Weather Information & NOTAM
ADDS - METARS form results

(1941 UTC 18 July 2019)
Data provider http://aviationweather.gov/metar/data/
 
Forecast for: LTCR (MARDIN AIRPORT , TR)
Text: TAF LTCR 181340Z 1815/1824 25012KT CAVOK
Forecast period: 1500 to 1900 UTC 18 July 2019
Forecast type: FROM: standard forecast or significant change
Winds: from the WSW (250 degrees) at 14 MPH (12 knots; 6.2 m/s)
Visibility: 6 or more miles 10+ km)
Ceiling: unknown
Clouds: missing
Weather: NSW  (no significant weather)
Text: BECMG 1819/1821 33006KT
Forecast period: 1900 UTC 18 July 2019 to 0000 UTC 19 July 2019
Forecast type: BECOMING: Conditions expected to become as follows by 2100 UTC 18 July 2019
Winds: from the NNW (330 degrees) at 7 MPH (6 knots; 3.1 m/s)
Visibility: 6 or more miles 10+ km)
Ceiling: unknown
Clouds: missing
Weather: NSW  (no significant weather)